Time;durP1;ratioP1;P1;durP2;ratioP2;P2;SDS_P1;SDS_P2;PMS_P1;PMS_P2;Temp;Humidity;BMP_temperature;BMP_pressure;BME280_temperature;BME280_humidity;BME280_pressure;Samples;Min_cycle;Max_cycle;Signal;HPM_P1;HPM_P2
2023/07/07 00:02:10;;;;;;;6.70;3.10;;;;;;;;;;5135062;27;20108;-73
2023/07/07 00:04:36;;;;;;;9.55;2.97;;;;;;;;;;5117235;27;20612;-72
2023/07/07 00:07:02;;;;;;;8.27;3.53;;;;;;;;;;5117057;28;20043;-73
2023/07/07 00:09:28;;;;;;;10.40;4.00;;;;;;;;;;5116262;28;20039;-72
2023/07/07 00:11:57;;;;;;;8.90;4.65;;;;;;;;;;5134603;28;20047;-72
2023/07/07 00:14:23;;;;;;;8.40;4.60;;;;;;;;;;5134429;28;20050;-72
2023/07/07 00:16:49;;;;;;;8.83;4.83;;;;;;;;;;5134140;28;20558;-72
2023/07/07 00:19:16;;;;;;;9.90;4.67;;;;;;;;;;5115776;28;20760;-73
2023/07/07 00:21:42;;;;;;;9.60;5.47;;;;;;;;;;5134326;28;20402;-73
2023/07/07 00:24:09;;;;;;;11.60;5.32;;;;;;;;;;5134412;28;20391;-73
2023/07/07 00:26:35;;;;;;;11.15;5.90;;;;;;;;;;5135100;28;20047;-73
2023/07/07 00:29:02;;;;;;;11.48;5.95;;;;;;;;;;5134138;28;20047;-72
2023/07/07 00:31:28;;;;;;;9.75;6.15;;;;;;;;;;5133770;28;20147;-73
2023/07/07 00:33:55;;;;;;;11.98;6.20;;;;;;;;;;5134227;28;20058;-72
2023/07/07 00:36:21;;;;;;;13.90;6.60;;;;;;;;;;5134073;28;20043;-72
2023/07/07 00:38:47;;;;;;;11.48;6.95;;;;;;;;;;5134119;28;20055;-73
2023/07/07 00:41:14;;;;;;;13.38;6.85;;;;;;;;;;5115990;28;20051;-73
2023/07/07 00:43:40;;;;;;;11.95;7.50;;;;;;;;;;5134107;28;20043;-72
2023/07/07 00:46:06;;;;;;;11.77;7.28;;;;;;;;;;5116483;28;20494;-72
2023/07/07 00:48:35;;;;;;;14.48;7.47;;;;;;;;;;5099298;28;20039;-72
2023/07/07 00:51:09;;;;;;;15.20;8.10;;;;;;;;;;5133963;28;20043;-72
2023/07/07 00:53:35;;;;;;;15.35;7.85;;;;;;;;;;5116428;28;20378;-72
2023/07/07 00:56:08;;;;;;;13.27;8.23;;;13.30;99.90;;;;;;5134089;28;20099;-71
2023/07/07 00:58:36;;;;;;;17.20;8.25;;;13.30;99.90;;;;;;5133692;28;20132;-72
2023/07/07 01:01:17;;;;;;;16.85;8.45;;;13.30;99.90;;;;;;5133268;28;20054;-73
2023/07/07 01:03:49;;;;;;;15.25;8.48;;;13.30;99.90;;;;;;5134301;28;20390;-72
2023/07/07 01:06:22;;;;;;;14.48;8.82;;;13.30;99.90;;;;;;5116181;28;20062;-72
2023/07/07 01:09:01;;;;;;;14.48;8.32;;;13.30;99.90;;;;;;5098937;28;20173;-71
2023/07/07 01:11:27;;;;;;;13.80;8.50;;;13.30;99.90;;;;;;5136809;27;20046;-72
2023/07/07 01:13:54;;;;;;;14.93;8.85;;;13.30;99.90;;;;;;5137477;27;20534;-72
2023/07/07 01:16:58;;;;;;;18.35;9.30;;;13.30;99.90;;;;;;5137535;27;20047;-72
2023/07/07 01:19:46;;;;;;;16.45;8.65;;;13.30;99.90;;;;;;5108420;27;20090;-72
2023/07/07 01:22:18;;;;;;;17.50;9.13;;;13.30;99.90;;;;;;5119306;27;20093;-72
2023/07/07 01:25:00;;;;;;;14.30;9.10;;;13.30;99.90;;;;;;5137515;27;20391;-71
2023/07/07 01:27:42;;;;;;;19.80;8.98;;;;;;;;;;5119628;27;20045;-72
2023/07/07 01:30:24;;;;;;;16.50;9.05;;;;;;;;;;5138756;27;20039;-72
2023/07/07 01:32:51;;;;;;;15.15;9.15;;;;;;;;;;5138732;27;20083;-72
2023/07/07 01:35:19;;;;;;;14.18;9.07;;;;;;;;;;5147075;27;20049;-72
2023/07/07 01:37:56;;;;;;;16.55;9.45;;;;;;;;;;5140224;27;20067;-71
2023/07/07 01:40:30;;;;;;;16.98;10.23;;;;;;;;;;5158921;27;20035;-72
2023/07/07 01:42:58;;;;;;;17.50;9.00;;;;;;;;;;5147628;27;20050;-72
2023/07/07 01:45:35;;;;;;;17.45;9.43;;;;;;;;;;5140240;27;20428;-73
2023/07/07 01:48:09;;;;;;;19.17;10.02;;;;;;;;;;5122130;27;20050;-73
2023/07/07 01:50:36;;;;;;;17.55;10.35;;;;;;;;;;5137455;27;20467;-72
2023/07/07 01:53:08;;;;;;;16.27;10.07;;;;;;;;;;5121682;27;20046;-73
2023/07/07 01:55:37;;;;;;;16.13;10.32;;;;;;;;;;5124530;27;20058;-74
2023/07/07 01:58:05;;;;;;;18.38;9.98;;;;;;;;;;5140877;27;20242;-73
2023/07/07 02:00:32;;;;;;;16.92;10.15;;;;;;;;;;5148675;27;20039;-71
2023/07/07 02:02:59;;;;;;;16.02;9.77;;;;;;;;;;5126933;27;20183;-72
2023/07/07 02:05:26;;;;;;;16.30;10.30;;;;;;;;;;5118242;27;20043;-74
2023/07/07 02:07:52;;;;;;;19.40;10.35;;;;;;;;;;5124843;27;20043;-74
2023/07/07 02:10:18;;;;;;;16.97;10.70;;;;;;;;;;5118467;27;20052;-73
2023/07/07 02:12:47;;;;;;;15.68;10.18;;;;;;;;;;5118658;27;20051;-72
2023/07/07 02:15:13;;;;;;;18.15;10.70;;;;;;;;;;5136377;27;20118;-72
2023/07/07 02:17:39;;;;;;;21.93;10.70;;;;;;;;;;5118288;27;20543;-72
2023/07/07 02:20:06;;;;;;;17.58;10.48;;;;;;;;;;5101041;27;20040;-72
2023/07/07 02:22:32;;;;;;;18.17;9.90;;;;;;;;;;5135254;27;20466;-73
2023/07/07 02:24:58;;;;;;;20.92;10.57;;;;;;;;;;5135952;27;20592;-72
2023/07/07 02:27:24;;;;;;;21.67;10.48;;;;;;;;;;5136253;27;20070;-72
2023/07/07 02:29:51;;;;;;;17.52;11.20;;;;;;;;;;5136931;27;20404;-72
2023/07/07 02:32:17;;;;;;;17.60;10.75;;;;;;;;;;5136116;27;20052;-73
2023/07/07 02:34:47;;;;;;;18.58;10.73;;;;;;;;;;5117559;27;20081;-72
2023/07/07 02:37:23;;;;;;;20.10;11.27;;;;;;;;;;5136229;27;20115;-72
2023/07/07 02:39:49;;;;;;;21.80;11.90;;;;;;;;;;5135977;27;20118;-72
2023/07/07 02:42:16;;;;;;;18.73;11.37;;;;;;;;;;5135144;27;20382;-73
2023/07/07 02:44:42;;;;;;;20.15;11.60;;;;;;;;;;5118269;27;20058;-73
2023/07/07 02:47:08;;;;;;;20.55;11.95;;;;;;;;;;5135565;27;20482;-73
2023/07/07 02:49:34;;;;;;;18.80;10.77;;;;;;;;;;5135785;27;20072;-73
2023/07/07 02:52:00;;;;;;;18.40;11.77;;;;;;;;;;5100739;27;20475;-73
2023/07/07 02:54:27;;;;;;;23.17;11.70;;;;;;;;;;5135758;27;20095;-73
2023/07/07 02:56:54;;;;;;;22.90;12.00;;;;;;;;;;5118441;27;20051;-72
2023/07/07 02:59:20;;;;;;;21.25;11.88;;;;;;;;;;5135487;27;20490;-72
2023/07/07 03:01:46;;;;;;;20.38;12.30;;;;;;;;;;5117399;27;20039;-73
2023/07/07 03:04:13;;;;;;;20.43;11.87;;;;;;;;;;5100554;27;20475;-73
2023/07/07 03:06:39;;;;;;;21.75;11.82;;;;;;;;;;5135534;27;20281;-72
2023/07/07 03:09:06;;;;;;;19.87;12.47;;;;;;;;;;5100350;27;20368;-72
2023/07/07 03:11:32;;;;;;;22.67;13.07;;;;;;;;;;5135424;27;20753;-72
2023/07/07 03:13:58;;;;;;;19.85;12.07;;;;;;;;;;5135321;27;20127;-72
2023/07/07 03:16:30;;;;;;;22.05;12.82;;;;;;;;;;5117201;27;20138;-73
2023/07/07 03:18:56;;;;;;;26.52;12.55;;;;;;;;;;5135452;27;20411;-72
2023/07/07 03:21:23;;;;;;;23.02;12.80;;;;;;;;;;5135161;27;20103;-72
2023/07/07 03:23:52;;;;;;;22.98;12.55;;;;;;;;;;5135827;27;20375;-73
2023/07/07 03:26:19;;;;;;;21.00;12.45;;;;;;;;;;5117067;27;20536;-73
2023/07/07 03:28:45;;;;;;;21.90;12.93;;;;;;;;;;5135135;27;20458;-73
2023/07/07 03:31:13;;;;;;;23.45;13.18;;;;;;;;;;5134758;27;20110;-73
2023/07/07 03:33:40;;;;;;;23.73;12.55;;;;;;;;;;5116623;27;20055;-73
2023/07/07 03:36:07;;;;;;;20.33;12.55;;;;;;;;;;5099577;27;20047;-73
2023/07/07 03:38:33;;;;;;;20.48;12.27;;;;;;;;;;5116721;27;20047;-72
2023/07/07 03:40:59;;;;;;;22.80;13.23;;;;;;;;;;5116844;27;20444;-73
2023/07/07 03:43:25;;;;;;;22.63;13.00;;;;;;;;;;5134798;27;20046;-74
2023/07/07 03:45:51;;;;;;;22.80;12.88;;;;;;;;;;5134690;27;20471;-72
2023/07/07 03:48:17;;;;;;;20.80;12.52;;;;;;;;;;5135585;27;20118;-74
2023/07/07 03:50:43;;;;;;;23.88;13.15;;;;;;;;;;5116630;27;20053;-72
2023/07/07 03:53:09;;;;;;;19.95;12.13;;;;;;;;;;5134072;27;20383;-72
2023/07/07 03:55:36;;;;;;;22.50;12.70;;;;;;;;;;5134807;27;20074;-72
2023/07/07 03:58:02;;;;;;;26.00;12.87;;;;;;;;;;5116578;27;20035;-73
2023/07/07 04:00:28;;;;;;;24.10;12.57;;;;;;;;;;5133878;27;20082;-73
2023/07/07 04:02:54;;;;;;;24.23;13.00;;;;;;;;;;5116185;27;20050;-72
2023/07/07 04:05:20;;;;;;;23.90;12.63;;;;;;;;;;5134753;27;20046;-73
2023/07/07 04:07:46;;;;;;;20.42;12.82;;;;;;;;;;5134674;27;20137;-73
2023/07/07 04:10:13;;;;;;;22.07;12.87;;;;;;;;;;5134471;27;20049;-73
2023/07/07 04:12:39;;;;;;;22.85;12.88;;;;;;;;;;5116447;28;20053;-75
2023/07/07 04:15:05;;;;;;;19.90;12.00;;;;;;;;;;5099273;28;20043;-73
2023/07/07 04:17:31;;;;;;;24.02;12.75;;;;;;;;;;5134462;28;20043;-73
2023/07/07 04:19:57;;;;;;;19.73;12.77;;;;;;;;;;5116309;28;20119;-74
2023/07/07 04:22:23;;;;;;;20.02;12.55;;;;;;;;;;5116016;28;20049;-72
2023/07/07 04:25:07;;;;;;;21.20;12.60;;;;;;;;;;5116207;28;20039;-72
2023/07/07 04:27:33;;;;;;;21.35;11.85;;;;;;;;;;5116589;28;20143;-73
2023/07/07 04:29:59;;;;;;;20.88;12.73;;;;;;;;;;5134454;28;20051;-73
2023/07/07 04:32:25;;;;;;;22.50;12.68;;;;;;;;;;5115913;28;20059;-73
2023/07/07 04:34:51;;;;;;;22.25;12.20;;;;;;;;;;5134252;28;20167;-74
2023/07/07 04:37:17;;;;;;;22.00;12.18;;;;;;;;;;5115672;28;20043;-73
2023/07/07 04:39:43;;;;;;;24.88;13.05;;;;;;;;;;5116194;28;20047;-74
2023/07/07 04:42:09;;;;;;;21.15;12.13;;;;;;;;;;5134658;28;20111;-73
2023/07/07 04:44:35;;;;;;;26.65;12.73;;;;;;;;;;5115831;28;20070;-72
2023/07/07 04:47:02;;;;;;;21.02;12.13;;;;;;;;;;5138280;27;20041;-73
2023/07/07 04:49:28;;;;;;;22.75;11.98;;;;;;;;;;5119693;27;20096;-73
2023/07/07 04:51:54;;;;;;;22.35;12.50;;;;;;;;;;5120564;27;20406;-73
2023/07/07 04:54:20;;;;;;;21.38;12.80;;;;;;;;;;5121564;27;20089;-73
2023/07/07 04:56:47;;;;;;;21.33;11.98;;;;;;;;;;5139403;27;20039;-71
2023/07/07 04:59:13;;;;;;;23.42;12.77;;;;;;;;;;5120761;27;20086;-72
2023/07/07 05:01:40;;;;;;;20.17;11.82;;;;;;;;;;5138352;27;20058;-73
2023/07/07 05:04:07;;;;;;;21.88;12.32;;;;;;;;;;5120336;27;20386;-74
2023/07/07 05:06:36;;;;;;;21.65;12.05;;;;;;;;;;5138763;27;20047;-73
2023/07/07 05:09:03;;;;;;;20.35;12.55;;;;;;;;;;5119649;27;20047;-74
2023/07/07 05:11:30;;;;;;;22.52;13.32;;;;;;;;;;5086370;27;20058;-73
2023/07/07 05:13:57;;;;;;;20.98;11.93;;;;;;;;;;5137580;27;20039;-73
2023/07/07 05:16:24;;;;;;;20.98;12.02;;;;;;;;;;5119342;27;20051;-74
2023/07/07 05:18:51;;;;;;;18.33;11.40;;;;;;;;;;5137250;27;20047;-73
2023/07/07 05:21:18;;;;;;;20.85;11.88;;;;;;;;;;5137992;27;20039;-73
2023/07/07 05:23:44;;;;;;;21.73;12.18;;;;;;;;;;5137658;27;20471;-73
2023/07/07 05:26:10;;;;;;;23.17;12.43;;;;;;;;;;5119228;27;20100;-73
2023/07/07 05:28:36;;;;;;;23.30;11.57;;;;;;;;;;5137277;27;20043;-73
2023/07/07 05:31:02;;;;;;;22.23;12.55;;;;;;;;;;5119120;27;20047;-74
2023/07/07 05:33:29;;;;;;;20.25;11.70;;;;;;;;;;5118680;27;20061;-74
2023/07/07 05:35:56;;;;;;;22.53;11.67;;;;;;;;;;5101941;27;20126;-74
2023/07/07 05:38:24;;;;;;;20.02;11.65;;;;;;;;;;5102552;27;20404;-73
2023/07/07 05:40:50;;;;;;;19.27;11.40;;;;;;;;;;5137852;27;20035;-74
2023/07/07 05:43:17;;;;;;;22.65;12.50;;;;;;;;;;5137202;27;20043;-73
2023/07/07 05:45:43;;;;;;;21.90;11.73;;;;;;;;;;5137041;27;20082;-73
2023/07/07 05:48:10;;;;;;;20.25;11.55;;;;;;;;;;5118871;27;20129;-72
2023/07/07 05:50:36;;;;;;;;;;;;;;;;;;5137840;27;20047;-72
2023/07/07 05:53:03;;;;;;;20.73;10.98;;;;;;;;;;5137063;27;19971;-74
2023/07/07 05:55:34;;;;;;;20.17;11.10;;;;;;;;;;5136934;27;20055;-72
2023/07/07 05:58:04;;;;;;;19.33;10.98;;;;;;;;;;5136842;27;20049;-74
2023/07/07 06:00:31;;;;;;;18.95;11.45;;;;;;;;;;5137523;27;20108;-73
2023/07/07 06:02:57;;;;;;;;;;;;;;;;;;5118811;27;20043;-72
2023/07/07 06:05:24;;;;;;;16.27;10.02;;;;;;;;;;5136687;27;19972;-74
2023/07/07 06:07:51;;;;;;;16.05;10.10;;;;;;;;;;5119313;27;20105;-72
2023/07/07 06:10:17;;;;;;;15.65;9.60;;;;;;;;;;5136477;27;20047;-71
2023/07/07 06:12:43;;;;;;;19.00;10.45;;;;;;;;;;5137076;27;20051;-74
2023/07/07 06:15:09;;;;;;;16.80;10.40;;;;;;;;;;5136562;27;20047;-73
2023/07/07 06:17:36;;;;;;;19.80;10.10;;;;;;;;;;5118249;27;20385;-73
2023/07/07 06:20:02;;;;;;;16.73;9.43;;;;;;;;;;5136536;27;20556;-72
2023/07/07 06:22:28;;;;;;;14.63;8.77;;;;;;;;;;5136433;27;20120;-73
2023/07/07 06:24:54;;;;;;;16.80;8.93;;;;;;;;;;5118274;27;20470;-73
2023/07/07 06:27:21;;;;;;;18.10;9.73;;;;;;;;;;5137955;27;20054;-72
2023/07/07 06:29:47;;;;;;;16.88;9.48;;;;;;;;;;5137342;27;20118;-74
2023/07/07 06:32:13;;;;;;;15.15;9.07;;;;;;;;;;5141608;27;20055;-73
2023/07/07 06:34:39;;;;;;;14.98;8.45;;;;;;;;;;5136463;27;20054;-75
2023/07/07 06:37:06;;;;;;;15.13;8.73;;;;;;;;;;5132582;27;20051;-74
2023/07/07 06:39:32;;;;;;;12.38;8.40;;;;;;;;;;5130948;27;20043;-72
2023/07/07 06:42:00;;;;;;;14.37;8.03;;;;;;;;;;5142039;27;20047;-75
2023/07/07 06:44:26;;;;;;;13.13;8.27;;;;;;;;;;5118848;27;20386;-74
2023/07/07 06:46:52;;;;;;;14.20;8.13;;;;;;;;;;5119063;27;20054;-74
2023/07/07 06:49:19;;;;;;;13.23;7.53;;;;;;;;;;5136125;27;20046;-75
2023/07/07 06:51:45;;;;;;;16.73;7.45;;;;;;;;;;5117835;27;20055;-73
2023/07/07 06:54:11;;;;;;;14.50;7.90;;;;;;;;;;5118273;27;20043;-75
2023/07/07 06:56:37;;;;;;;12.02;7.32;;;;;;;;;;5101490;27;20043;-73
2023/07/07 06:59:04;;;;;;;15.30;6.95;;;;;;;;;;5140716;27;20043;-73
2023/07/07 07:01:30;;;;;;;13.90;6.97;;;;;;;;;;5125753;27;20046;-74
2023/07/07 07:04:00;;;;;;;11.35;6.68;;;;;;;;;;5143679;27;20039;-73
2023/07/07 07:06:26;;;;;;;11.02;6.65;;;;;;;;;;5146616;27;20047;-74
2023/07/07 07:08:52;;;;;;;13.73;6.57;;;;;;;;;;5137270;27;20437;-75
2023/07/07 07:11:18;;;;;;;10.23;6.35;;;;;;;;;;5117313;27;20085;-73
2023/07/07 07:13:45;;;;;;;11.20;5.93;;;;;;;;;;5117719;27;20040;-73
2023/07/07 07:16:11;;;;;;;10.77;5.57;;;;;;;;;;5100261;27;20082;-74
2023/07/07 07:18:37;;;;;;;10.50;5.43;;;;;;;;;;5117395;27;20428;-73
2023/07/07 07:21:04;;;;;;;11.23;5.40;;;;;;;;;;5116953;27;20495;-75
2023/07/07 07:23:30;;;;;;;9.75;5.10;;;;;;;;;;5116562;27;20054;-74
2023/07/07 07:25:56;;;;;;;10.48;5.28;;;;;;;;;;5116682;27;20498;-73
2023/07/07 07:28:22;;;;;;;11.75;5.07;;;;;;;;;;5134738;27;20047;-74
2023/07/07 07:30:49;;;;;;;13.27;4.32;;;;;;;;;;5135017;27;20046;-73
2023/07/07 07:33:20;;;;;;;10.95;3.92;;;;;;;;;;5135097;27;20051;-73
2023/07/07 07:35:46;;;;;;;7.53;3.83;;;;;;;;;;5134818;27;20051;-75
2023/07/07 07:38:14;;;;;;;10.05;3.70;;;;;;;;;;5134447;27;20043;-74
2023/07/07 07:40:40;;;;;;;8.20;3.17;;;;;;;;;;5116485;27;20082;-74
2023/07/07 07:43:07;;;;;;;8.85;3.10;;;;;;;;;;5134778;27;20043;-75
2023/07/07 07:45:33;;;;;;;9.73;3.25;;;;;;;;;;5117451;27;20126;-74
2023/07/07 07:47:59;;;;;;;5.85;2.95;;;;;;;;;;5116641;27;20043;-73
2023/07/07 07:50:26;;;;;;;7.55;2.75;;;;;;;;;;5116186;27;20047;-73
2023/07/07 07:52:52;;;;;;;6.53;2.38;;;;;;;;;;5134538;27;20039;-72
2023/07/07 07:55:18;;;;;;;7.57;2.15;;;;;;;;;;5116417;27;20047;-72
2023/07/07 07:57:44;;;;;;;8.93;2.42;;;;;;;;;;5099308;27;20054;-73
2023/07/07 08:00:11;;;;;;;6.72;2.15;;;;;;;;;;5134722;27;20047;-75
2023/07/07 08:02:37;;;;;;;6.25;2.00;;;;;;;;;;5117010;27;20043;-74
2023/07/07 08:05:03;;;;;;;;;;;;;;;;;;5117481;27;20042;-75
2023/07/07 08:07:30;;;;;;;5.95;1.80;;;;;;;;;;5116426;27;19919;-72
2023/07/07 08:09:56;;;;;;;6.18;2.13;;;;;;;;;;5116445;27;20046;-74
2023/07/07 08:12:22;;;;;;;7.45;1.70;;;;;;;;;;5116236;28;20406;-74
2023/07/07 08:14:49;;;;;;;5.43;1.63;;;;;;;;;;5117052;28;20044;-74
2023/07/07 08:17:15;;;;;;;5.22;1.65;;;;;;;;;;5134641;28;20050;-74
2023/07/07 08:19:42;;;;;;;7.78;1.70;;;;;;;;;;5116720;27;20100;-76
2023/07/07 08:22:11;;;;;;;9.48;1.70;;;;;;;;;;5138805;27;20047;-74
2023/07/07 08:24:38;;;;;;;5.15;1.50;;;;;;;;;;5138802;27;20040;-73
2023/07/07 08:27:05;;;;;;;5.93;1.60;;;;;;;;;;5120378;27;20047;-73
2023/07/07 08:29:31;;;;;;;4.90;1.52;;;;;;;;;;5120825;27;20055;-72
2023/07/07 08:31:57;;;;;;;4.28;1.33;;;;;;;;;;5138467;27;20065;-73
2023/07/07 08:34:23;;;;;;;6.60;1.35;;;;;;;;;;5138466;27;20050;-73
2023/07/07 08:36:49;;;;;;;5.35;1.40;;;;;;;;;;5103946;27;20051;-75
2023/07/07 08:39:17;;;;;;;6.20;1.52;;;;;;;;;;5138391;27;20043;-74
2023/07/07 08:41:48;;;;;;;7.55;1.77;;;;;;;;;;5139215;27;20065;-73
2023/07/07 08:44:16;;;;;;;5.20;1.60;;;;;;;;;;5138287;27;20054;-74
2023/07/07 08:46:42;;;;;;;5.63;1.67;;;;;;;;;;5103309;27;20066;-75
2023/07/07 08:49:17;;;;;;;7.45;1.77;;;;;;;;;;5103260;27;20134;-75
2023/07/07 08:51:47;;;;;;;5.43;1.40;;;;;;;;;;5120111;27;20039;-74
2023/07/07 08:54:19;;;;;;;4.13;1.70;;;;;;;;;;5138053;27;20363;-72
2023/07/07 08:56:54;;;;;;;7.63;1.80;;;;;;;;;;5120105;27;20043;-74
2023/07/07 08:59:39;;;;;;;3.78;1.40;;;;;;;;;;5120600;27;20099;-74
2023/07/07 09:02:05;;;;;;;6.03;1.58;;;;;;;;;;5102764;27;20058;-75
2023/07/07 09:04:37;;;;;;;4.95;1.63;;;;;;;;;;5119777;27;20039;-74
2023/07/07 09:07:03;;;;;;;5.20;1.40;;;;;;;;;;5102801;27;20428;-74
2023/07/07 09:09:44;;;;;;;6.40;1.33;;;;;;;;;;5138488;27;20039;-73
2023/07/07 09:12:26;;;;;;;4.35;1.40;;;;;;;;;;5119562;27;20062;-72
2023/07/07 09:14:53;;;;;;;4.38;1.70;;;;;;;;;;5138348;27;20083;-74
2023/07/07 09:17:23;;;;;;;4.95;1.80;;;;;;;;;;5137611;27;20047;-75
2023/07/07 09:19:51;;;;;;;6.05;1.60;;;;;;;;;;5119197;27;20375;-73
2023/07/07 09:22:20;;;;;;;6.55;1.42;;;;;;;;;;5137394;27;20518;-73
2023/07/07 09:24:49;;;;;;;7.93;1.70;;;;;;;;;;5137941;27;20051;-74
2023/07/07 09:27:30;;;;;;;5.03;1.55;;;;;;;;;;5138102;27;20093;-75
2023/07/07 09:30:14;;;;;;;9.05;1.83;;;;;;;;;;5137434;27;20043;-75
2023/07/07 09:32:41;;;;;;;3.78;1.25;;;;;;;;;;5118342;27;20433;-73
2023/07/07 09:35:11;;;;;;;4.88;1.42;;;;;;;;;;5119147;27;20399;-75
2023/07/07 09:37:51;;;;;;;7.82;1.85;;;;;;;;;;5119913;27;20047;-75
2023/07/07 09:40:19;;;;;;;7.07;1.85;;;;;;;;;;5119813;27;20043;-74
2023/07/07 09:42:45;;;;;;;6.60;1.80;;;;;;;;;;5137203;27;20036;-74
2023/07/07 09:45:17;;;;;;;5.82;1.80;;;;;;;;;;5137377;27;20078;-74
2023/07/07 09:47:58;;;;;;;5.07;1.60;;;;;;;;;;5119694;27;20478;-74
2023/07/07 09:50:30;;;;;;;6.43;1.50;;;;;;;;;;5118838;27;20047;-74
2023/07/07 09:52:59;;;;;;;7.75;2.08;;;;;;;;;;5136925;27;20094;-75
2023/07/07 09:55:27;;;;;;;5.60;2.00;;;;;;;;;;5101732;27;20502;-75
2023/07/07 09:58:02;;;;;;;6.22;1.50;;;;;;;;;;5136927;27;20047;-75
2023/07/07 10:00:29;;;;;;;5.53;1.60;;;;;;;;;;5136868;27;20043;-75
2023/07/07 10:02:55;;;;;;;5.10;1.40;;;;;;;;;;5137214;27;20043;-75
2023/07/07 10:05:24;;;;;;;5.35;1.85;;;;;;;;;;5136628;27;20514;-74
2023/07/07 10:07:50;;;;;;;6.97;1.77;;;;;;;;;;5136462;27;20559;-73
2023/07/07 10:10:16;;;;;;;;;;;;;;;;;;5137049;27;20183;-74
2023/07/07 10:12:43;;;;;;;6.35;1.60;;;;;;;;;;5136562;27;19992;-74
2023/07/07 10:15:09;;;;;;;;;;;;;;;;;;5137093;27;20053;-74
2023/07/07 10:17:45;;;;;;;5.38;1.90;;;;;;;;;;5118452;27;19919;-76
2023/07/07 10:20:11;;;;;;;4.75;1.42;;;;;;;;;;5137303;27;20070;-75
2023/07/07 10:22:38;;;;;;;8.45;1.88;;;;;;;;;;5101504;27;20051;-75
2023/07/07 10:25:05;;;;;;;5.07;1.70;;;;;;;;;;5118190;27;20138;-75
2023/07/07 10:27:31;;;;;;;6.85;1.80;;;;;;;;;;5101021;27;20039;-76
2023/07/07 10:30:00;;;;;;;6.15;1.85;;;;;;;;;;5136125;27;20043;-75
2023/07/07 10:32:27;;;;;;;6.25;1.67;;;;;;;;;;5117457;27;20486;-75
2023/07/07 10:34:55;;;;;;;6.60;1.75;;;;;;;;;;5136192;27;20053;-77
2023/07/07 10:37:22;;;;;;;5.35;1.50;;;;;;;;;;5135959;27;20073;-75
2023/07/07 10:39:55;;;;;;;6.22;1.70;;;;;;;;;;5101305;27;20101;-75
2023/07/07 10:42:25;;;;;;;5.35;2.00;;;;;;;;;;5135984;27;20062;-74
2023/07/07 10:44:55;;;;;;;5.47;1.77;;;;;;;;;;5118162;27;20090;-74
2023/07/07 10:47:24;;;;;;;6.50;1.77;;;;;;;;;;5118389;27;20050;-75
2023/07/07 10:49:51;;;;;;;6.18;1.67;;;;;;;;;;5118351;27;20126;-75
2023/07/07 10:52:19;;;;;;;7.65;1.88;;;;;;;;;;5136254;27;20566;-75
2023/07/07 10:54:50;;;;;;;7.38;1.65;;;;;;;;;;5117807;27;20439;-73
2023/07/07 10:57:22;;;;;;;4.50;1.45;;;;;;;;;;5117865;27;20046;-72
2023/07/07 11:00:07;;;;;;;5.85;1.52;;;;;;;;;;5135787;27;20046;-73
2023/07/07 11:02:48;;;;;;;7.68;1.77;;;;;;;;;;5135947;27;20042;-75
2023/07/07 11:05:17;;;;;;;7.60;2.05;;;;;;;;;;5117414;27;20043;-75
2023/07/07 11:07:49;;;;;;;5.70;1.75;;;;;;;;;;5135885;27;20132;-75
2023/07/07 11:10:40;;;;;;;5.38;1.88;;;;;;;;;;5116665;27;20050;-76
2023/07/07 11:13:23;;;;;;;4.78;1.75;;;;;;;;;;5116770;27;20096;-75
2023/07/07 11:15:54;;;;;;;5.80;1.80;;;;;;;;;;5100693;27;20055;-74
2023/07/07 11:18:36;;;;;;;6.15;2.00;;;;;;;;;;5100118;27;20546;-75
2023/07/07 11:21:09;;;;;;;4.32;1.55;;;;;;;;;;5100962;27;20039;-74
2023/07/07 11:23:51;;;;;;;4.95;1.60;;;;;;;;;;5116838;27;20043;-75
2023/07/07 11:26:33;;;;;;;4.85;1.77;;;;;;;;;;5100045;27;20074;-75
2023/07/07 11:29:06;;;;;;;7.00;1.92;;;;;;;;;;5134971;27;20479;-75
2023/07/07 11:32:12;;;;;;;4.70;1.73;;;;;;;;;;5135360;27;20047;-74
2023/07/07 11:34:38;;;;;;;4.90;2.05;;;;;;;;;;5034952;28;20611;-74
2023/07/07 11:37:22;;;;;;;8.57;2.03;;;;;;;;;;5051499;28;20049;-73
2023/07/07 11:40:09;;;;;;;4.80;1.98;;;;;;;;;;5101388;27;20054;-73
2023/07/07 11:42:45;;;;;;;5.50;1.63;;;;;;;;;;5075855;27;20055;-73
2023/07/07 11:45:11;;;;;;;;;;;;;;;;;;5117378;27;20386;-74
2023/07/07 11:47:37;;;;;;;7.00;2.20;;;;;;;;;;5116824;27;19964;-74
2023/07/07 11:50:12;;;;;;;6.65;2.20;;;;;;;;;;5116207;27;20047;-74
2023/07/07 11:52:44;;;;;;;6.38;2.30;;;;;;;;;;5117198;27;20061;-75
2023/07/07 11:55:10;;;;;;;4.72;2.15;;;;;;;;;;5099121;27;20043;-74
2023/07/07 11:58:03;;;;;;;7.72;2.58;;;;;;;;;;5134782;27;20047;-74
2023/07/07 12:00:52;;;;;;;6.93;2.40;;;;;;;;;;5135439;27;20085;-74
2023/07/07 12:03:27;;;;;;;7.93;2.53;;;;;;;;;;5105877;28;20055;-75
2023/07/07 12:05:54;;;;;;;6.17;2.83;;;;;;;;;;5134642;27;20055;-74
2023/07/07 12:08:31;;;;;;;7.20;2.83;;;;;;;;;;5098934;28;20285;-75
2023/07/07 12:10:58;;;;;;;8.38;2.80;;;;;;;;;;5134483;27;20082;-74
2023/07/07 12:13:44;;;;;;;7.40;2.65;;;;;;;;;;5099371;27;20104;-73
2023/07/07 12:16:10;;;;;;;8.70;2.60;;;;;;;;;;5075470;28;20134;-73
2023/07/07 12:18:38;;;;;;;10.18;2.90;;;;;;;;;;5134390;28;20051;-72
2023/07/07 12:21:07;;;;;;;6.75;2.25;;;;;;;;;;5099165;28;20055;-72
2023/07/07 12:23:37;;;;;;;7.13;2.55;;;25.70;79.30;;;;;;5116042;28;20051;-72
2023/07/07 12:26:34;;;;;;;9.57;2.75;;;25.80;78.90;;;;;;5134191;28;20082;-72
2023/07/07 12:29:02;;;;;;;7.82;2.55;;;25.80;80.30;;;;;;5109797;28;20051;-74
2023/07/07 12:31:29;;;;;;;6.50;2.22;;;25.90;79.20;;;;;;5134457;28;20059;-71
2023/07/07 12:33:55;;;;;;;6.90;2.35;;;26.00;77.80;;;;;;5150479;27;20063;-71
2023/07/07 12:36:29;;;;;;;5.70;2.25;;;25.90;78.40;;;;;;5134182;28;20087;-71
2023/07/07 12:38:57;;;;;;;6.25;2.00;;;25.90;75.00;;;;;;5115885;28;20046;-73
2023/07/07 12:41:28;;;;;;;6.75;2.08;;;25.80;75.20;;;;;;5115756;28;20043;-72
2023/07/07 12:43:58;;;;;;;5.72;2.30;;;25.80;76.70;;;;;;5134038;28;20039;-74
2023/07/07 12:46:33;;;;;;;7.82;2.03;;;25.90;76.20;;;;;;5134060;28;20039;-71
2023/07/07 12:49:20;;;;;;;6.30;2.10;;;26.00;73.00;;;;;;5115524;28;20047;-73
2023/07/07 12:51:46;;;;;;;8.05;2.45;;;25.90;73.30;;;;;;5132754;28;20062;-72
2023/07/07 12:54:33;;;;;;;6.50;2.47;;;25.80;73.90;;;;;;5116515;28;20130;-73
2023/07/07 12:57:19;;;;;;;7.72;2.53;;;25.80;75.10;;;;;;5115471;28;20083;-71
2023/07/07 12:59:45;;;;;;;7.00;2.00;;;25.90;76.80;;;;;;5116071;28;20100;-75
2023/07/07 13:02:20;;;;;;;6.18;2.25;;;26.00;76.80;;;;;;5115429;28;20051;-72
2023/07/07 13:05:00;;;;;;;5.53;2.10;;;26.10;74.50;;;;;;5134323;28;20043;-76
2023/07/07 13:07:31;;;;;;;6.82;2.50;;;26.20;75.20;;;;;;5136917;27;20043;-72
2023/07/07 13:09:58;;;;;;;7.47;2.33;;;26.20;75.40;;;;;;5137547;27;20062;-71
2023/07/07 13:12:44;;;;;;;6.78;2.13;;;26.20;75.40;;;;;;5119290;27;20452;-69
2023/07/07 13:15:17;;;;;;;5.57;2.08;;;26.30;73.90;;;;;;5120034;27;20050;-72
2023/07/07 13:17:43;;;;;;;4.88;1.83;;;26.20;72.00;;;;;;5119138;27;20053;-72
2023/07/07 13:20:13;;;;;;;5.50;2.05;;;26.20;74.50;;;;;;5118974;27;20059;-71
2023/07/07 13:22:46;;;;;;;6.80;1.73;;;26.30;73.90;;;;;;5119820;27;20047;-70
2023/07/07 13:25:33;;;;;;;5.72;2.08;;;26.20;74.60;;;;;;5137050;27;20497;-72
2023/07/07 13:28:00;;;;;;;7.35;2.35;;;26.20;72.60;;;;;;5119168;27;20138;-70
2023/07/07 13:30:39;;;;;;;6.50;2.22;;;26.40;74.70;;;;;;5119303;27;20440;-71
2023/07/07 13:33:12;;;;;;;15.68;2.58;;;26.50;73.90;;;;;;5118963;27;20058;-72
2023/07/07 13:35:50;;;;;;;8.60;2.63;;;26.50;74.90;;;;;;5102709;27;20047;-72
2023/07/07 13:38:21;;;;;;;6.53;2.35;;;26.60;73.90;;;;;;5102396;27;20035;-71
2023/07/07 13:40:48;;;;;;;8.30;2.20;;;26.50;75.40;;;;;;5137831;27;20043;-71
2023/07/07 13:43:30;;;;;;;5.57;2.05;;;26.60;75.00;;;;;;5137685;27;20058;-70
2023/07/07 13:46:15;;;;;;;8.10;2.03;;;26.60;75.20;;;;;;5137397;27;20043;-72
2023/07/07 13:48:49;;;;;;;6.68;2.00;;;26.60;75.50;;;;;;5137582;27;20039;-70
2023/07/07 13:51:42;;;;;;;8.07;2.38;;;26.70;73.70;;;;;;5118790;27;20538;-71
2023/07/07 13:54:12;;;;;;;5.47;2.17;;;26.70;75.40;;;;;;5115903;27;20059;-71
2023/07/07 13:56:43;;;;;;;6.53;2.40;;;26.70;74.70;;;;;;5118655;27;20040;-71
2023/07/07 13:59:25;;;;;;;7.47;2.10;;;26.70;74.60;;;;;;5137477;27;20374;-72
2023/07/07 14:01:52;;;;;;;5.15;1.88;;;26.80;75.40;;;;;;5119259;27;20051;-71
2023/07/07 14:04:31;;;;;;;6.85;2.30;;;26.90;72.80;;;;;;5136639;27;20608;-72
2023/07/07 14:06:57;;;;;;;7.72;2.38;;;26.70;73.40;;;;;;5101967;27;20140;-72
2023/07/07 14:09:28;;;;;;;8.73;2.58;;;26.60;70.20;;;;;;5136830;27;20046;-70
2023/07/07 14:11:57;;;;;;;9.35;2.70;;;26.50;73.30;;;;;;5136882;27;20042;-75
2023/07/07 14:14:24;;;;;;;8.18;2.63;;;26.60;75.20;;;;;;5102402;27;20059;-71
2023/07/07 14:16:59;;;;;;;8.10;3.10;;;26.60;75.80;;;;;;5136474;27;20130;-71
2023/07/07 14:19:59;;;;;;;11.50;2.70;;;26.70;75.20;;;;;;5118472;27;20070;-70
2023/07/07 14:22:29;;;;;;;7.28;2.70;;;26.70;75.40;;;;;;5121906;27;20408;-72
2023/07/07 14:24:55;;;;;;;6.50;2.53;;;26.80;75.50;;;;;;5118373;27;20111;-72
2023/07/07 14:27:22;;;;;;;10.23;2.60;;;26.80;75.80;;;;;;5119050;27;20047;-72